Time,TemperatureF,DewpointF,PressureIn,WindDirection,WindDirectionDegrees,WindSpeedMPH,WindSpeedGustMPH,Humidity,HourlyPrecipIn,Conditions,Clouds,dailyrainin,SoftwareType,DateUTC
2013-04-14 00:00:00,57.0,52.9,29.98,ESE,106,0.0,0.0,86,0.00,,CLR,0.00,VWS V14.01,2013-04-14 04:00:00,
2013-04-14 00:03:00,57.0,53.2,29.98,ESE,106,0.0,0.0,87,0.00,,CLR,0.00,VWS V14.01,2013-04-14 04:03:00,
2013-04-14 00:12:00,56.9,53.1,29.98,ESE,106,0.0,0.0,87,0.00,,CLR,0.00,VWS V14.01,2013-04-14 04:12:00,
2013-04-14 00:15:00,56.8,53.0,29.98,ESE,106,0.0,0.0,87,0.00,,SCT070,0.00,VWS V14.01,2013-04-14 04:15:00,
2013-04-14 00:26:00,56.7,52.9,29.99,ESE,106,0.0,0.0,87,0.00,,CLR,0.00,VWS V14.01,2013-04-14 04:26:00,
2013-04-14 00:30:00,56.6,53.1,29.99,ESE,106,0.0,0.0,88,0.00,,FEW040,0.00,VWS V14.01,2013-04-14 04:30:00,
2013-04-14 00:36:00,56.5,53.0,29.99,ESE,106,0.0,0.0,88,0.00,,CLR,0.00,VWS V14.01,2013-04-14 04:36:00,
2013-04-14 00:45:00,56.3,52.8,30.00,ESE,106,0.0,0.0,88,0.00,,CLR,0.00,VWS V14.01,2013-04-14 04:45:00,
2013-04-14 00:55:00,56.0,52.8,30.00,ESE,106,0.0,0.0,89,0.00,,CLR,0.00,VWS V14.01,2013-04-14 04:55:00,
2013-04-14 01:00:00,55.8,52.6,29.99,ESE,106,0.0,0.0,89,0.00,,CLR,0.00,VWS V14.01,2013-04-14 05:00:00,
2013-04-14 01:09:00,55.6,52.4,29.99,ESE,106,0.0,0.0,89,0.00,,CLR,0.00,VWS V14.01,2013-04-14 05:09:00,
2013-04-14 01:15:00,55.5,52.6,30.00,ESE,106,0.0,0.0,90,0.00,,CLR,0.00,VWS V14.01,2013-04-14 05:15:00,
2013-04-14 01:23:00,55.3,52.4,29.99,ESE,106,0.0,0.0,90,0.00,,CLR,0.00,VWS V14.01,2013-04-14 05:23:00,
2013-04-14 01:30:00,55.1,52.5,29.99,ESE,106,0.0,0.0,91,0.00,,CLR,0.00,VWS V14.01,2013-04-14 05:30:00,
2013-04-14 01:37:00,55.0,52.4,29.98,ESE,106,0.0,0.0,91,0.00,,CLR,0.00,VWS V14.01,2013-04-14 05:37:00,
2013-04-14 01:45:00,54.8,52.2,29.98,ESE,106,0.0,0.0,91,0.00,,CLR,0.00,VWS V14.01,2013-04-14 05:45:00,
2013-04-14 01:51:00,54.6,52.0,29.98,ESE,106,0.0,0.0,91,0.00,,CLR,0.00,VWS V14.01,2013-04-14 05:51:00,
2013-04-14 02:00:00,54.4,51.8,29.98,ESE,106,0.0,0.0,91,0.00,,CLR,0.00,VWS V14.01,2013-04-14 06:00:00,
2013-04-14 02:05:00,54.2,51.6,29.98,ESE,106,0.0,0.0,91,0.00,,CLR,0.00,VWS V14.01,2013-04-14 06:05:00,
2013-04-14 02:15:00,53.9,51.3,29.98,ESE,106,0.0,0.0,91,0.00,,CLR,0.00,VWS V14.01,2013-04-14 06:15:00,
2013-04-14 02:24:00,53.5,50.9,29.98,ESE,106,0.0,0.0,91,0.00,,CLR,0.00,VWS V14.01,2013-04-14 06:24:00,
2013-04-14 02:30:00,53.2,50.7,29.98,ESE,106,0.0,0.0,91,0.00,,CLR,0.00,VWS V14.01,2013-04-14 06:30:00,
2013-04-14 02:38:00,53.0,50.7,29.98,ESE,106,0.0,0.0,92,0.00,,CLR,0.00,VWS V14.01,2013-04-14 06:38:00,
2013-04-14 02:45:00,52.9,50.6,29.98,ESE,106,0.0,0.0,92,0.00,,CLR,0.00,VWS V14.01,2013-04-14 06:45:00,
2013-04-14 02:53:00,52.8,50.5,29.98,ESE,106,0.0,0.0,92,0.00,,CLR,0.00,VWS V14.01,2013-04-14 06:53:00,
2013-04-14 03:00:00,52.6,50.3,29.97,ESE,106,0.0,0.0,92,0.00,,CLR,0.00,VWS V14.01,2013-04-14 07:00:00,
2013-04-14 03:07:00,52.4,50.2,29.97,ESE,106,0.0,0.0,92,0.00,,CLR,0.00,VWS V14.01,2013-04-14 07:07:00,
2013-04-14 03:15:00,52.1,49.8,29.97,ESE,106,0.0,0.0,92,0.00,,CLR,0.00,VWS V14.01,2013-04-14 07:15:00,
2013-04-14 03:21:00,52.0,50.0,29.97,ESE,106,0.0,0.0,93,0.00,,CLR,0.00,VWS V14.01,2013-04-14 07:21:00,
2013-04-14 03:30:00,51.8,49.8,29.97,ESE,106,0.0,0.0,93,0.00,,CLR,0.00,VWS V14.01,2013-04-14 07:30:00,
2013-04-14 03:35:00,51.7,49.8,29.97,ESE,106,0.0,0.0,93,0.00,,CLR,0.00,VWS V14.01,2013-04-14 07:35:00,
2013-04-14 03:44:00,51.7,50.0,29.97,ESE,106,0.0,0.0,94,0.00,,CLR,0.00,VWS V14.01,2013-04-14 07:44:00,
2013-04-14 03:45:00,51.7,50.0,29.97,ESE,106,0.0,0.0,94,0.00,,FEW040,0.00,VWS V14.01,2013-04-14 07:45:00,
2013-04-14 03:54:00,51.7,50.0,29.97,ESE,106,0.0,0.0,94,0.00,,CLR,0.00,VWS V14.01,2013-04-14 07:54:00,
2013-04-14 04:00:00,51.7,50.0,29.97,ESE,106,0.0,0.0,94,0.00,,CLR,0.00,VWS V14.01,2013-04-14 08:00:00,
2013-04-14 04:08:00,51.6,49.9,29.97,ESE,106,0.0,0.0,94,0.00,,CLR,0.00,VWS V14.01,2013-04-14 08:08:00,
2013-04-14 04:15:00,51.5,49.8,29.97,ESE,106,0.0,0.0,94,0.00,,CLR,0.00,VWS V14.01,2013-04-14 08:15:00,
2013-04-14 04:22:00,51.5,49.8,29.98,ESE,106,0.0,0.0,94,0.00,,CLR,0.00,VWS V14.01,2013-04-14 08:22:00,
2013-04-14 04:30:00,51.4,50.0,29.98,ESE,106,0.0,0.0,95,0.00,,CLR,0.00,VWS V14.01,2013-04-14 08:30:00,
2013-04-14 04:36:00,51.3,49.9,29.98,ESE,106,0.0,0.0,95,0.00,,CLR,0.00,VWS V14.01,2013-04-14 08:36:00,
2013-04-14 04:45:00,51.3,49.9,29.98,ESE,106,0.0,0.0,95,0.00,,CLR,0.00,VWS V14.01,2013-04-14 08:45:00,
2013-04-14 04:50:00,51.2,49.8,29.98,ESE,106,0.0,0.0,95,0.00,,CLR,0.00,VWS V14.01,2013-04-14 08:50:00,
2013-04-14 05:00:00,51.3,49.9,29.98,ESE,106,0.0,0.0,95,0.00,,CLR,0.00,VWS V14.01,2013-04-14 09:00:00,
2013-04-14 05:09:00,51.3,49.9,29.98,ESE,106,0.0,0.0,95,0.00,,CLR,0.00,VWS V14.01,2013-04-14 09:09:00,
2013-04-14 05:15:00,51.3,49.9,29.98,ESE,106,0.0,0.0,95,0.00,,CLR,0.00,VWS V14.01,2013-04-14 09:15:00,
2013-04-14 05:23:00,51.3,49.9,29.98,ESE,106,0.0,0.0,95,0.00,,CLR,0.00,VWS V14.01,2013-04-14 09:23:00,
2013-04-14 05:30:00,51.3,49.9,29.98,ESE,106,0.0,0.0,95,0.00,,CLR,0.00,VWS V14.01,2013-04-14 09:30:00,
2013-04-14 05:37:00,51.2,49.8,29.98,ESE,106,0.0,0.0,95,0.00,,CLR,0.00,VWS V14.01,2013-04-14 09:37:00,
2013-04-14 05:45:00,51.0,49.6,29.98,ESE,106,0.0,0.0,95,0.00,,CLR,0.00,VWS V14.01,2013-04-14 09:45:00,
2013-04-14 05:56:00,50.8,49.4,29.98,ESE,106,0.0,0.0,95,0.00,,CLR,0.00,VWS V14.01,2013-04-14 09:56:00,
2013-04-14 06:00:00,50.8,49.4,29.98,ESE,106,0.0,0.0,95,0.00,,FEW040,0.00,VWS V14.01,2013-04-14 10:00:00,
2013-04-14 06:10:00,50.7,49.3,29.99,ESE,106,0.0,0.0,95,0.00,,CLR,0.00,VWS V14.01,2013-04-14 10:10:00,
2013-04-14 06:15:00,50.7,49.3,29.99,ESE,106,0.0,0.0,95,0.00,,FEW040,0.00,VWS V14.01,2013-04-14 10:15:00,
2013-04-14 06:20:00,50.6,49.2,29.99,ESE,106,0.0,0.0,95,0.00,,CLR,0.00,VWS V14.01,2013-04-14 10:20:00,
2013-04-14 06:29:00,50.6,49.2,30.00,ESE,106,0.0,0.0,95,0.00,,CLR,0.00,VWS V14.01,2013-04-14 10:29:00,
2013-04-14 06:30:00,50.6,49.2,30.00,ESE,106,0.0,0.0,95,0.00,,FEW040,0.00,VWS V14.01,2013-04-14 10:30:00,
2013-04-14 06:39:00,50.8,49.4,30.01,ESE,106,0.0,0.0,95,0.00,,CLR,0.00,VWS V14.01,2013-04-14 10:39:00,
2013-04-14 06:45:00,50.9,49.8,30.01,ESE,106,0.0,0.0,96,0.00,,CLR,0.00,VWS V14.01,2013-04-14 10:45:00,
2013-04-14 06:53:00,51.0,49.9,30.02,ESE,109,0.0,1.0,96,0.00,,CLR,0.00,VWS V14.01,2013-04-14 10:53:00,
2013-04-14 07:00:00,51.0,49.9,30.01,ESE,109,0.0,1.0,96,0.00,,CLR,0.00,VWS V14.01,2013-04-14 11:00:00,
2013-04-14 07:07:00,51.0,49.9,30.02,ESE,109,0.0,0.0,96,0.00,,CLR,0.00,VWS V14.01,2013-04-14 11:07:00,
2013-04-14 07:15:00,51.1,50.0,30.02,ESE,109,0.0,0.0,96,0.00,,CLR,0.00,VWS V14.01,2013-04-14 11:15:00,
2013-04-14 07:21:00,51.2,50.1,30.02,ESE,109,0.0,0.0,96,0.00,,CLR,0.00,VWS V14.01,2013-04-14 11:21:00,
2013-04-14 07:30:00,51.5,50.4,30.03,ESE,109,0.0,0.0,96,0.00,,CLR,0.00,VWS V14.01,2013-04-14 11:30:00,
2013-04-14 07:35:00,51.7,50.6,30.03,ESE,109,0.0,0.0,96,0.00,,CLR,0.00,VWS V14.01,2013-04-14 11:35:00,
2013-04-14 07:44:00,52.2,51.1,30.03,ESE,109,0.0,0.0,96,0.00,,CLR,0.00,VWS V14.01,2013-04-14 11:44:00,
2013-04-14 07:45:00,52.3,51.2,30.03,ESE,109,0.0,0.0,96,0.00,,FEW040,0.00,VWS V14.01,2013-04-14 11:45:00,
2013-04-14 07:54:00,52.8,51.7,30.03,ESE,109,0.0,0.0,96,0.00,,CLR,0.00,VWS V14.01,2013-04-14 11:54:00,
2013-04-14 08:00:00,53.1,52.0,30.03,ESE,109,0.0,0.0,96,0.00,,CLR,0.00,VWS V14.01,2013-04-14 12:00:00,
2013-04-14 08:08:00,53.6,52.5,30.04,ESE,109,0.0,0.0,96,0.00,,CLR,0.00,VWS V14.01,2013-04-14 12:08:00,
2013-04-14 08:15:00,54.0,52.9,30.04,ESE,109,0.0,0.0,96,0.00,,CLR,0.00,VWS V14.01,2013-04-14 12:15:00,
2013-04-14 08:22:00,54.5,53.7,30.04,ESE,109,0.0,0.0,97,0.00,,CLR,0.00,VWS V14.01,2013-04-14 12:22:00,
2013-04-14 08:30:00,55.2,54.4,30.04,ESE,109,0.0,0.0,97,0.00,,CLR,0.00,VWS V14.01,2013-04-14 12:30:00,
2013-04-14 08:36:00,56.1,55.3,30.04,ESE,109,0.0,0.0,97,0.00,,CLR,0.00,VWS V14.01,2013-04-14 12:36:00,
2013-04-14 08:45:00,57.1,56.3,30.04,ESE,109,0.0,0.0,97,0.00,,CLR,0.00,VWS V14.01,2013-04-14 12:45:00,
2013-04-14 08:50:00,57.4,56.6,30.03,ESE,109,0.0,0.0,97,0.00,,CLR,0.00,VWS V14.01,2013-04-14 12:50:00,
2013-04-14 09:00:00,57.9,57.1,30.03,ESE,109,0.0,0.0,97,0.00,,CLR,0.00,VWS V14.01,2013-04-14 13:00:00,
2013-04-14 09:09:00,58.5,57.7,30.04,ESE,105,0.0,0.0,97,0.00,,CLR,0.00,VWS V14.01,2013-04-14 13:09:00,
2013-04-14 09:15:00,59.0,58.2,30.04,ESE,105,0.0,0.0,97,0.00,,CLR,0.00,VWS V14.01,2013-04-14 13:15:00,
2013-04-14 09:23:00,59.8,58.7,30.04,ESE,105,0.0,1.0,96,0.00,,CLR,0.00,VWS V14.01,2013-04-14 13:23:00,
2013-04-14 09:30:00,60.9,59.8,30.05,ESE,105,0.0,1.0,96,0.00,,CLR,0.00,VWS V14.01,2013-04-14 13:30:00,
2013-04-14 09:37:00,61.7,60.3,30.05,ESE,105,0.0,0.0,95,0.00,,CLR,0.00,VWS V14.01,2013-04-14 13:37:00,
2013-04-14 09:45:00,62.3,60.0,30.05,ESE,105,0.0,1.0,92,0.00,,CLR,0.00,VWS V14.01,2013-04-14 13:45:00,
2013-04-14 09:51:00,62.9,60.2,30.05,ESE,105,0.0,0.0,91,0.00,,CLR,0.00,VWS V14.01,2013-04-14 13:51:00,
2013-04-14 10:00:00,64.1,60.5,30.05,ESE,105,0.0,1.0,88,0.00,,CLR,0.00,VWS V14.01,2013-04-14 14:00:00,
2013-04-14 10:05:00,65.1,61.1,30.05,ESE,105,0.0,0.0,87,0.00,,CLR,0.00,VWS V14.01,2013-04-14 14:05:00,
2013-04-14 10:14:00,66.6,60.9,30.05,ESE,105,0.0,0.0,82,0.00,,CLR,0.00,VWS V14.01,2013-04-14 14:14:00,
2013-04-14 10:15:00,66.6,60.9,30.05,ESE,105,0.0,1.0,82,0.00,,FEW040,0.00,VWS V14.01,2013-04-14 14:15:00,
2013-04-14 10:24:00,67.0,60.6,30.04,ESE,105,0.0,2.0,80,0.00,,CLR,0.00,VWS V14.01,2013-04-14 14:24:00,
2013-04-14 10:30:00,67.0,60.6,30.04,ESE,105,0.0,2.0,80,0.00,,CLR,0.00,VWS V14.01,2013-04-14 14:30:00,
2013-04-14 10:38:00,67.2,59.8,30.04,ESE,105,0.0,0.0,77,0.00,,CLR,0.00,VWS V14.01,2013-04-14 14:38:00,
2013-04-14 10:45:00,67.7,59.1,30.05,ESE,105,0.0,1.0,74,0.00,,CLR,0.00,VWS V14.01,2013-04-14 14:45:00,
2013-04-14 10:52:00,68.1,59.5,30.05,ESE,105,0.0,1.0,74,0.00,,CLR,0.00,VWS V14.01,2013-04-14 14:52:00,
2013-04-14 11:00:00,68.4,59.8,30.05,ESE,105,0.0,1.0,74,0.00,,CLR,0.00,VWS V14.01,2013-04-14 15:00:00,
2013-04-14 11:06:00,68.7,60.5,30.04,ESE,105,0.0,0.0,75,0.00,,CLR,0.00,VWS V14.01,2013-04-14 15:06:00,
2013-04-14 11:15:00,69.4,60.8,30.04,ESE,105,0.0,0.0,74,0.00,,CLR,0.00,VWS V14.01,2013-04-14 15:15:00,
2013-04-14 11:20:00,69.8,61.2,30.04,ESE,105,0.0,0.0,74,0.00,,CLR,0.00,VWS V14.01,2013-04-14 15:20:00,
2013-04-14 11:30:00,70.1,60.7,30.04,ESE,105,0.0,1.0,72,0.00,,CLR,0.00,VWS V14.01,2013-04-14 15:30:00,
2013-04-14 11:39:00,70.4,60.2,30.04,ESE,105,0.0,1.0,70,0.00,,CLR,0.00,VWS V14.01,2013-04-14 15:39:00,
2013-04-14 11:45:00,70.6,60.3,30.04,ESE,105,0.0,1.0,70,0.00,,CLR,0.00,VWS V14.01,2013-04-14 15:45:00,
2013-04-14 11:53:00,70.7,60.0,30.04,ESE,105,0.0,1.0,69,0.00,,CLR,0.00,VWS V14.01,2013-04-14 15:53:00,
2013-04-14 12:00:00,70.9,60.6,30.05,ESE,105,0.0,1.0,70,0.00,,CLR,0.00,VWS V14.01,2013-04-14 16:00:00,
2013-04-14 12:07:00,70.9,61.4,30.05,ESE,105,0.0,0.0,72,0.00,,CLR,0.00,VWS V14.01,2013-04-14 16:07:00,
2013-04-14 12:15:00,70.7,61.6,30.04,ESE,105,0.0,1.0,73,0.00,,CLR,0.00,VWS V14.01,2013-04-14 16:15:00,
2013-04-14 12:21:00,70.7,59.6,30.04,ESE,105,0.0,0.0,68,0.00,,CLR,0.00,VWS V14.01,2013-04-14 16:21:00,
2013-04-14 12:30:00,70.6,60.3,30.03,ESE,105,0.0,1.0,70,0.00,,CLR,0.00,VWS V14.01,2013-04-14 16:30:00,
2013-04-14 12:36:00,70.4,60.6,30.03,ESE,105,0.0,0.0,71,0.00,,CLR,0.00,VWS V14.01,2013-04-14 16:36:00,
2013-04-14 12:45:00,70.2,61.2,30.03,ESE,105,0.0,2.0,73,0.00,,CLR,0.00,VWS V14.01,2013-04-14 16:45:00,
2013-04-14 12:54:00,69.8,60.8,30.02,ESE,105,0.0,2.0,73,0.00,,CLR,0.00,VWS V14.01,2013-04-14 16:54:00,
2013-04-14 13:00:00,69.7,61.0,30.02,ESE,105,0.0,2.0,74,0.00,,CLR,0.00,VWS V14.01,2013-04-14 17:00:00,
2013-04-14 13:08:00,69.8,60.4,30.02,ESE,105,0.0,1.0,72,0.00,,CLR,0.00,VWS V14.01,2013-04-14 17:08:00,
2013-04-14 13:15:00,69.9,59.7,30.02,ESE,105,0.0,2.0,70,0.00,,CLR,0.00,VWS V14.01,2013-04-14 17:15:00,
2013-04-14 13:22:00,70.2,60.4,30.03,ESE,105,0.0,1.0,71,0.00,,CLR,0.00,VWS V14.01,2013-04-14 17:22:00,
2013-04-14 13:30:00,70.6,60.3,30.02,ESE,105,0.0,1.0,70,0.00,,CLR,0.00,VWS V14.01,2013-04-14 17:30:00,
2013-04-14 13:36:00,70.8,59.7,30.02,ESE,105,0.0,1.0,68,0.00,,CLR,0.00,VWS V14.01,2013-04-14 17:36:00,
2013-04-14 13:45:00,70.8,59.7,30.03,ESE,105,0.0,1.0,68,0.00,,CLR,0.00,VWS V14.01,2013-04-14 17:45:00,
2013-04-14 13:51:00,70.7,59.2,30.02,ESE,105,1.0,1.0,67,0.00,,CLR,0.00,VWS V14.01,2013-04-14 17:51:00,
2013-04-14 14:00:00,70.4,60.2,30.03,ESE,105,0.0,1.0,70,0.00,,CLR,0.00,VWS V14.01,2013-04-14 18:00:00,
2013-04-14 14:09:00,70.5,60.3,30.02,ESE,105,0.0,2.0,70,0.00,,CLR,0.00,VWS V14.01,2013-04-14 18:09:00,
2013-04-14 14:15:00,70.5,60.3,30.01,East,90,0.0,2.0,70,0.00,,CLR,0.00,VWS V14.01,2013-04-14 18:15:00,
2013-04-14 14:23:00,70.6,60.8,30.01,East,90,0.0,0.0,71,0.00,,CLR,0.00,VWS V14.01,2013-04-14 18:23:00,
2013-04-14 14:30:00,70.4,60.2,30.01,East,90,0.0,1.0,70,0.00,,CLR,0.00,VWS V14.01,2013-04-14 18:30:00,
2013-04-14 14:37:00,70.2,60.4,30.01,East,90,0.0,2.0,71,0.00,,CLR,0.00,VWS V14.01,2013-04-14 18:37:00,
2013-04-14 14:45:00,70.1,60.7,30.01,East,90,0.0,2.0,72,0.00,,CLR,0.00,VWS V14.01,2013-04-14 18:45:00,
2013-04-14 14:52:00,70.1,60.3,30.01,East,90,0.0,0.0,71,0.00,,CLR,0.00,VWS V14.01,2013-04-14 18:52:00,
2013-04-14 15:00:00,70.1,60.3,30.01,East,90,0.0,0.0,71,0.00,,CLR,0.00,VWS V14.01,2013-04-14 19:00:00,
2013-04-14 15:11:00,70.0,61.0,30.02,East,90,0.0,0.0,73,0.00,,CLR,0.00,VWS V14.01,2013-04-14 19:11:00,
2013-04-14 15:15:00,70.0,60.6,30.02,East,90,0.0,0.0,72,0.00,,FEW040,0.00,VWS V14.01,2013-04-14 19:15:00,
2013-04-14 15:20:00,70.0,61.3,30.02,East,90,0.0,0.0,74,0.00,,CLR,0.00,VWS V14.01,2013-04-14 19:20:00,
2013-04-14 15:29:00,69.9,61.6,30.02,East,90,0.0,0.0,75,0.00,,CLR,0.00,VWS V14.01,2013-04-14 19:29:00,
2013-04-14 15:30:00,69.9,61.6,30.02,East,90,0.0,0.0,75,0.00,,FEW040,0.00,VWS V14.01,2013-04-14 19:30:00,
2013-04-14 15:39:00,69.9,62.0,30.02,East,90,0.0,0.0,76,0.00,,CLR,0.00,VWS V14.01,2013-04-14 19:39:00,
2013-04-14 15:45:00,69.8,61.9,30.02,East,90,0.0,0.0,76,0.00,,CLR,0.00,VWS V14.01,2013-04-14 19:45:00,
2013-04-14 15:53:00,69.5,61.6,30.02,East,90,0.0,0.0,76,0.00,,CLR,0.00,VWS V14.01,2013-04-14 19:53:00,
2013-04-14 16:00:00,69.5,61.2,30.02,East,90,0.0,0.0,75,0.00,,CLR,0.00,VWS V14.01,2013-04-14 20:00:00,
2013-04-14 16:07:00,69.6,61.7,30.02,East,90,0.0,0.0,76,0.00,,BKN110,0.00,VWS V14.01,2013-04-14 20:07:00,
2013-04-14 16:15:00,69.4,61.5,30.01,East,90,0.0,0.0,76,0.00,,BKN110,0.00,VWS V14.01,2013-04-14 20:15:00,
2013-04-14 16:26:00,69.1,61.2,30.02,East,90,0.0,0.0,76,0.00,,BKN110,0.00,VWS V14.01,2013-04-14 20:26:00,
2013-04-14 16:30:00,69.1,60.5,30.02,East,90,0.0,0.0,74,0.00,,FEW040,0.00,VWS V14.01,2013-04-14 20:30:00,
2013-04-14 16:35:00,69.0,60.8,30.02,East,90,0.0,0.0,75,0.00,,BKN110,0.00,VWS V14.01,2013-04-14 20:35:00,
2013-04-14 16:44:00,68.8,62.0,30.02,East,90,0.0,0.0,79,0.00,,BKN110,0.00,VWS V14.01,2013-04-14 20:44:00,
2013-04-14 16:45:00,68.7,61.9,30.02,East,90,0.0,0.0,79,0.00,,FEW040,0.00,VWS V14.01,2013-04-14 20:45:00,
2013-04-14 16:54:00,67.4,62.1,30.02,East,90,0.0,0.0,83,0.00,,BKN110,0.00,VWS V14.01,2013-04-14 20:54:00,
2013-04-14 17:00:00,66.4,62.1,30.02,East,90,0.0,0.0,86,0.00,,BKN110,0.00,VWS V14.01,2013-04-14 21:00:00,
2013-04-14 17:08:00,65.8,62.2,30.02,East,90,0.0,0.0,88,0.00,,-RA,0.00,VWS V14.01,2013-04-14 21:08:00,
2013-04-14 17:15:00,65.5,62.2,30.02,SSE,158,0.0,1.0,89,0.00,,-RA,0.00,VWS V14.01,2013-04-14 21:15:00,
2013-04-14 17:22:00,65.4,62.4,30.02,SSE,158,0.0,0.0,90,0.01,,-RA,0.01,VWS V14.01,2013-04-14 21:22:00,
2013-04-14 17:30:00,65.1,61.8,30.01,SSE,157,0.0,0.0,89,0.01,,-RA,0.01,VWS V14.01,2013-04-14 21:30:00,
2013-04-14 17:41:00,64.9,62.2,29.99,SSE,158,0.0,0.0,91,0.01,,-RA,0.01,VWS V14.01,2013-04-14 21:41:00,
2013-04-14 17:45:00,64.8,62.1,30.00,SSE,157,0.0,0.0,91,0.01,,FEW040,0.01,VWS V14.01,2013-04-14 21:45:00,
2013-04-14 17:50:00,64.8,62.4,30.00,SSE,157,0.0,0.0,92,0.01,,-RA,0.01,VWS V14.01,2013-04-14 21:50:00,
2013-04-14 17:59:00,65.0,62.6,29.99,SSE,158,0.0,0.0,92,0.01,,-RA,0.01,VWS V14.01,2013-04-14 21:59:00,
2013-04-14 18:00:00,65.0,62.6,29.99,SSE,158,0.0,0.0,92,0.01,,FEW040,0.01,VWS V14.01,2013-04-14 22:00:00,
2013-04-14 18:09:00,65.1,62.7,29.98,SSE,158,0.0,0.0,92,0.01,,OVC095,0.01,VWS V14.01,2013-04-14 22:09:00,
2013-04-14 18:15:00,65.2,62.8,29.99,SSE,158,0.0,0.0,92,0.01,,OVC095,0.01,VWS V14.01,2013-04-14 22:15:00,
2013-04-14 18:23:00,65.3,62.9,29.98,SSE,157,0.0,0.0,92,0.01,,OVC095,0.01,VWS V14.01,2013-04-14 22:23:00,
2013-04-14 18:30:00,65.2,62.8,29.98,SSE,158,0.0,0.0,92,0.01,,OVC095,0.01,VWS V14.01,2013-04-14 22:30:00,
2013-04-14 18:37:00,65.1,62.7,29.97,SSE,158,0.0,0.0,92,0.00,,OVC095,0.01,VWS V14.01,2013-04-14 22:37:00,
2013-04-14 18:45:00,64.9,62.5,29.97,SSE,157,0.0,0.0,92,0.00,,OVC095,0.01,VWS V14.01,2013-04-14 22:45:00,
2013-04-14 18:51:00,64.8,62.4,29.97,SSE,158,0.0,0.0,92,0.00,,OVC095,0.01,VWS V14.01,2013-04-14 22:51:00,
2013-04-14 19:00:00,64.7,62.3,29.97,SSE,158,0.0,0.0,92,0.00,,OVC095,0.01,VWS V14.01,2013-04-14 23:00:00,
2013-04-14 19:05:00,64.7,62.3,29.96,SSE,150,0.0,0.0,92,0.01,,-RA,0.02,VWS V14.01,2013-04-14 23:05:00,
2013-04-14 19:15:00,64.5,62.4,29.96,SSE,150,0.0,0.0,93,0.01,,-RA,0.02,VWS V14.01,2013-04-14 23:15:00,
2013-04-14 19:24:00,64.4,62.3,29.96,SSE,150,0.0,0.0,93,0.01,,-RA,0.02,VWS V14.01,2013-04-14 23:24:00,
2013-04-14 19:30:00,64.3,62.2,29.95,SSE,150,0.0,0.0,93,0.01,,-RA,0.02,VWS V14.01,2013-04-14 23:30:00,
2013-04-14 19:38:00,64.2,62.1,29.95,SSE,150,0.0,0.0,93,0.01,,-RA,0.02,VWS V14.01,2013-04-14 23:38:00,
2013-04-14 19:45:00,64.1,62.0,29.94,SSE,150,0.0,0.0,93,0.01,,-RA,0.02,VWS V14.01,2013-04-14 23:45:00,
2013-04-14 19:52:00,64.1,62.0,29.94,SSE,150,0.0,0.0,93,0.01,,-RA,0.02,VWS V14.01,2013-04-14 23:52:00,
2013-04-14 20:00:00,64.1,62.0,29.94,SSE,150,0.0,0.0,93,0.01,,-RA,0.02,VWS V14.01,2013-04-15 00:00:00,
2013-04-14 20:06:00,64.1,62.0,29.93,SSE,150,0.0,0.0,93,0.01,,-RA,0.02,VWS V14.01,2013-04-15 00:06:00,
2013-04-14 20:15:00,64.1,62.0,29.94,WSW,244,0.0,2.0,93,0.01,,-RA,0.02,VWS V14.01,2013-04-15 00:15:00,
2013-04-14 20:20:00,64.1,62.0,29.93,WSW,244,0.0,0.0,93,0.00,,-RA,0.02,VWS V14.01,2013-04-15 00:20:00,
2013-04-14 20:30:00,64.0,61.9,29.94,WSW,244,0.0,1.0,93,0.00,,-RA,0.02,VWS V14.01,2013-04-15 00:30:00,
2013-04-14 20:39:00,64.0,61.9,29.94,WSW,244,0.0,0.0,93,0.00,,-RA,0.02,VWS V14.01,2013-04-15 00:39:00,
2013-04-14 20:45:00,63.9,61.8,29.94,WSW,244,0.0,0.0,93,0.00,,-RA,0.02,VWS V14.01,2013-04-15 00:45:00,
2013-04-14 20:53:00,63.8,61.7,29.95,WSW,244,0.0,0.0,93,0.00,,-RA,0.02,VWS V14.01,2013-04-15 00:53:00,
2013-04-14 21:00:00,63.8,61.7,29.96,WSW,244,0.0,0.0,93,0.00,,-RA,0.02,VWS V14.01,2013-04-15 01:00:00,
2013-04-14 21:07:00,63.7,62.0,29.97,WSW,244,0.0,0.0,94,0.00,,-RA,0.02,VWS V14.01,2013-04-15 01:07:00,
2013-04-14 21:15:00,63.7,62.0,29.98,WSW,244,0.0,0.0,94,0.02,,-RA,0.04,VWS V14.01,2013-04-15 01:15:00,
2013-04-14 21:21:00,63.6,61.8,29.99,WSW,244,0.0,0.0,94,0.02,,-RA,0.04,VWS V14.01,2013-04-15 01:21:00,
2013-04-14 21:30:00,63.5,62.0,30.01,WSW,244,0.0,0.0,95,0.03,,-RA,0.05,VWS V14.01,2013-04-15 01:30:00,
2013-04-14 21:35:00,63.5,62.0,30.02,WSW,244,0.0,0.0,95,0.04,,-RA,0.06,VWS V14.01,2013-04-15 01:35:00,
2013-04-14 21:45:00,63.5,62.0,30.01,WSW,244,0.0,0.0,95,0.05,,-RA,0.07,VWS V14.01,2013-04-15 01:45:00,
2013-04-14 21:54:00,63.2,61.8,30.01,East,95,1.0,5.0,95,0.05,,-RA,0.07,VWS V14.01,2013-04-15 01:54:00,
2013-04-14 22:00:00,62.5,61.0,30.01,East,96,0.0,5.0,95,0.06,,-RA,0.08,VWS V14.01,2013-04-15 02:00:00,
2013-04-14 22:08:00,61.6,60.2,30.00,East,96,0.0,2.0,95,0.06,,-RA,0.08,VWS V14.01,2013-04-15 02:08:00,
2013-04-14 22:15:00,61.3,59.9,30.00,East,96,0.0,2.0,95,0.07,,-RA,0.09,VWS V14.01,2013-04-15 02:15:00,
2013-04-14 22:22:00,61.3,59.9,30.00,East,96,0.0,1.0,95,0.05,,-RA,0.09,VWS V14.01,2013-04-15 02:22:00,
2013-04-14 22:30:00,61.3,60.2,30.00,East,96,0.0,1.0,96,0.05,,-RA,0.09,VWS V14.01,2013-04-15 02:30:00,
2013-04-14 22:36:00,61.4,60.2,30.01,East,96,0.0,0.0,96,0.05,,-RA,0.10,VWS V14.01,2013-04-15 02:36:00,
2013-04-14 22:45:00,61.4,60.2,30.01,East,96,0.0,0.0,96,0.05,,-RA,0.10,VWS V14.01,2013-04-15 02:45:00,
2013-04-14 22:50:00,61.5,60.3,29.99,East,96,0.0,0.0,96,0.03,,-RA,0.10,VWS V14.01,2013-04-15 02:50:00,
2013-04-14 23:00:00,61.5,60.3,29.99,East,95,0.0,0.0,96,0.04,,-RA,0.11,VWS V14.01,2013-04-15 03:00:00,
2013-04-14 23:09:00,61.6,60.5,29.98,East,95,0.0,1.0,96,0.03,,-RA,0.11,VWS V14.01,2013-04-15 03:09:00,
2013-04-14 23:15:00,61.7,60.5,29.98,East,96,0.0,1.0,96,0.04,,-RA,0.12,VWS V14.01,2013-04-15 03:15:00,
2013-04-14 23:23:00,61.7,60.5,29.97,East,95,0.0,0.0,96,0.03,,-RA,0.12,VWS V14.01,2013-04-15 03:23:00,
2013-04-14 23:30:00,61.5,60.3,29.96,East,96,0.0,2.0,96,0.04,,-RA,0.13,VWS V14.01,2013-04-15 03:30:00,
2013-04-14 23:37:00,61.3,60.2,29.95,East,95,0.0,0.0,96,0.04,,-RA,0.13,VWS V14.01,2013-04-15 03:37:00,
2013-04-14 23:45:00,61.2,60.3,29.93,East,96,0.0,1.0,97,0.04,,-RA,0.13,VWS V14.01,2013-04-15 03:45:00,
2013-04-14 23:51:00,61.2,60.0,29.93,East,96,0.0,2.0,96,0.04,,-RA,0.14,VWS V14.01,2013-04-15 03:51:00,